sensor_id;sensor_type;location;lat;lon;timestamp;temperature;humidity
14475;DHT22;7323;50.848;4.334;2023-02-26T00:01:42;3.90;99.90
14475;DHT22;7323;50.848;4.334;2023-02-26T00:04:30;3.90;99.90
14475;DHT22;7323;50.848;4.334;2023-02-26T00:06:57;4.00;99.90
14475;DHT22;7323;50.848;4.334;2023-02-26T00:09:26;4.10;99.90
14475;DHT22;7323;50.848;4.334;2023-02-26T00:12:00;3.90;99.90
14475;DHT22;7323;50.848;4.334;2023-02-26T00:17:53;3.60;99.90
14475;DHT22;7323;50.848;4.334;2023-02-26T00:20:22;3.90;99.90
14475;DHT22;7323;50.848;4.334;2023-02-26T00:23:08;3.70;99.90
14475;DHT22;7323;50.848;4.334;2023-02-26T00:25:57;3.60;99.90
14475;DHT22;7323;50.848;4.334;2023-02-26T00:28:27;3.70;99.90
14475;DHT22;7323;50.848;4.334;2023-02-26T00:31:04;3.70;99.90
14475;DHT22;7323;50.848;4.334;2023-02-26T00:33:40;3.80;99.90
14475;DHT22;7323;50.848;4.334;2023-02-26T00:42:14;3.80;99.90
14475;DHT22;7323;50.848;4.334;2023-02-26T00:44:51;3.70;1.00
14475;DHT22;7323;50.848;4.334;2023-02-26T00:54:12;3.80;1.00
14475;DHT22;7323;50.848;4.334;2023-02-26T00:57:07;3.80;1.00
14475;DHT22;7323;50.848;4.334;2023-02-26T01:02:54;3.60;1.00
14475;DHT22;7323;50.848;4.334;2023-02-26T01:05:59;3.50;1.00
14475;DHT22;7323;50.848;4.334;2023-02-26T01:08:31;3.50;1.00
14475;DHT22;7323;50.848;4.334;2023-02-26T01:11:26;3.50;1.00
14475;DHT22;7323;50.848;4.334;2023-02-26T01:14:29;3.50;1.00
14475;DHT22;7323;50.848;4.334;2023-02-26T01:17:33;3.50;1.00
14475;DHT22;7323;50.848;4.334;2023-02-26T01:20:18;3.50;1.00
14475;DHT22;7323;50.848;4.334;2023-02-26T01:23:06;3.40;1.00
14475;DHT22;7323;50.848;4.334;2023-02-26T01:26:14;3.40;1.00
14475;DHT22;7323;50.848;4.334;2023-02-26T01:28:43;3.40;1.00
14475;DHT22;7323;50.848;4.334;2023-02-26T01:34:27;3.40;1.00
14475;DHT22;7323;50.848;4.334;2023-02-26T01:37:19;3.50;1.00
14475;DHT22;7323;50.848;4.334;2023-02-26T01:42:44;3.40;1.00
14475;DHT22;7323;50.848;4.334;2023-02-26T01:45:16;3.40;1.00
14475;DHT22;7323;50.848;4.334;2023-02-26T01:48:17;3.30;1.00
14475;DHT22;7323;50.848;4.334;2023-02-26T01:50:45;3.20;1.00
14475;DHT22;7323;50.848;4.334;2023-02-26T01:53:29;3.30;1.00
14475;DHT22;7323;50.848;4.334;2023-02-26T01:56:01;3.20;1.00
14475;DHT22;7323;50.848;4.334;2023-02-26T01:58:33;3.20;1.00
14475;DHT22;7323;50.848;4.334;2023-02-26T02:01:00;3.20;1.00
14475;DHT22;7323;50.848;4.334;2023-02-26T02:03:29;3.20;1.00
14475;DHT22;7323;50.848;4.334;2023-02-26T02:06:07;3.30;1.00
14475;DHT22;7323;50.848;4.334;2023-02-26T02:08:35;3.30;1.00
14475;DHT22;7323;50.848;4.334;2023-02-26T02:11:07;3.20;1.00
14475;DHT22;7323;50.848;4.334;2023-02-26T02:13:57;3.30;1.00
14475;DHT22;7323;50.848;4.334;2023-02-26T02:16:49;3.20;1.00
14475;DHT22;7323;50.848;4.334;2023-02-26T02:23:16;3.10;1.00
14475;DHT22;7323;50.848;4.334;2023-02-26T02:28:34;3.00;1.00
14475;DHT22;7323;50.848;4.334;2023-02-26T02:31:14;3.20;1.00
14475;DHT22;7323;50.848;4.334;2023-02-26T02:34:02;2.90;1.00
14475;DHT22;7323;50.848;4.334;2023-02-26T02:39:43;2.90;1.00
14475;DHT22;7323;50.848;4.334;2023-02-26T02:45:06;3.00;1.00
14475;DHT22;7323;50.848;4.334;2023-02-26T02:47:36;3.00;1.00
14475;DHT22;7323;50.848;4.334;2023-02-26T02:52:56;2.90;1.00
14475;DHT22;7323;50.848;4.334;2023-02-26T02:55:27;2.80;1.00
14475;DHT22;7323;50.848;4.334;2023-02-26T02:58:14;2.80;1.00
14475;DHT22;7323;50.848;4.334;2023-02-26T03:00:47;2.80;1.00
14475;DHT22;7323;50.848;4.334;2023-02-26T03:06:18;2.90;1.00
14475;DHT22;7323;50.848;4.334;2023-02-26T03:08:45;2.90;1.00
14475;DHT22;7323;50.848;4.334;2023-02-26T03:11:12;2.90;1.00
14475;DHT22;7323;50.848;4.334;2023-02-26T03:13:39;2.90;1.00
14475;DHT22;7323;50.848;4.334;2023-02-26T03:16:35;2.90;1.00
14475;DHT22;7323;50.848;4.334;2023-02-26T03:25:46;2.80;1.00
14475;DHT22;7323;50.848;4.334;2023-02-26T03:28:30;2.80;1.00
14475;DHT22;7323;50.848;4.334;2023-02-26T03:34:16;2.80;1.00
14475;DHT22;7323;50.848;4.334;2023-02-26T03:37:16;2.80;1.00
14475;DHT22;7323;50.848;4.334;2023-02-26T03:39:53;2.80;1.00
14475;DHT22;7323;50.848;4.334;2023-02-26T03:42:33;2.80;1.00
14475;DHT22;7323;50.848;4.334;2023-02-26T03:45:15;3.00;1.00
14475;DHT22;7323;50.848;4.334;2023-02-26T03:48:07;2.80;1.00
14475;DHT22;7323;50.848;4.334;2023-02-26T03:50:45;2.80;1.00
14475;DHT22;7323;50.848;4.334;2023-02-26T03:56:36;2.70;1.00
14475;DHT22;7323;50.848;4.334;2023-02-26T03:59:03;2.70;1.00
14475;DHT22;7323;50.848;4.334;2023-02-26T04:01:58;2.60;1.00
14475;DHT22;7323;50.848;4.334;2023-02-26T04:04:59;2.60;1.00
14475;DHT22;7323;50.848;4.334;2023-02-26T04:07:28;2.60;1.00
14475;DHT22;7323;50.848;4.334;2023-02-26T04:10:24;2.60;1.00
14475;DHT22;7323;50.848;4.334;2023-02-26T04:12:59;2.60;1.00
14475;DHT22;7323;50.848;4.334;2023-02-26T04:15:32;2.60;1.00
14475;DHT22;7323;50.848;4.334;2023-02-26T04:18:08;2.50;1.00
14475;DHT22;7323;50.848;4.334;2023-02-26T04:20:40;2.50;1.00
14475;DHT22;7323;50.848;4.334;2023-02-26T04:23:13;2.50;1.00
14475;DHT22;7323;50.848;4.334;2023-02-26T04:25:39;2.50;1.00
14475;DHT22;7323;50.848;4.334;2023-02-26T04:28:04;2.40;1.00
14475;DHT22;7323;50.848;4.334;2023-02-26T04:34:15;2.40;1.00
14475;DHT22;7323;50.848;4.334;2023-02-26T04:36:48;2.30;1.00
14475;DHT22;7323;50.848;4.334;2023-02-26T04:39:16;2.50;1.00
14475;DHT22;7323;50.848;4.334;2023-02-26T04:41:41;2.30;1.00
14475;DHT22;7323;50.848;4.334;2023-02-26T04:44:09;2.30;1.00
14475;DHT22;7323;50.848;4.334;2023-02-26T04:46:51;2.40;1.00
14475;DHT22;7323;50.848;4.334;2023-02-26T04:49:39;2.30;1.00
14475;DHT22;7323;50.848;4.334;2023-02-26T04:52:05;2.20;1.00
14475;DHT22;7323;50.848;4.334;2023-02-26T04:54:36;2.20;1.00
14475;DHT22;7323;50.848;4.334;2023-02-26T04:57:08;2.20;1.00
14475;DHT22;7323;50.848;4.334;2023-02-26T04:59:33;2.20;1.00
14475;DHT22;7323;50.848;4.334;2023-02-26T05:01:59;2.20;1.00
14475;DHT22;7323;50.848;4.334;2023-02-26T05:08:12;2.10;1.00
14475;DHT22;7323;50.848;4.334;2023-02-26T05:10:42;2.00;1.00
14475;DHT22;7323;50.848;4.334;2023-02-26T05:13:10;2.10;1.00
14475;DHT22;7323;50.848;4.334;2023-02-26T05:16:12;2.00;1.00
14475;DHT22;7323;50.848;4.334;2023-02-26T05:18:44;2.10;1.00
14475;DHT22;7323;50.848;4.334;2023-02-26T05:24:32;2.00;1.00
14475;DHT22;7323;50.848;4.334;2023-02-26T05:26:58;2.10;1.00
14475;DHT22;7323;50.848;4.334;2023-02-26T05:29:24;2.00;1.00
14475;DHT22;7323;50.848;4.334;2023-02-26T05:31:50;1.90;1.00
14475;DHT22;7323;50.848;4.334;2023-02-26T05:34:16;1.90;1.00
14475;DHT22;7323;50.848;4.334;2023-02-26T05:36:45;1.90;1.00
14475;DHT22;7323;50.848;4.334;2023-02-26T05:39:29;1.80;1.00
14475;DHT22;7323;50.848;4.334;2023-02-26T05:41:55;1.90;1.00
14475;DHT22;7323;50.848;4.334;2023-02-26T05:44:43;1.80;1.00
14475;DHT22;7323;50.848;4.334;2023-02-26T05:47:11;1.80;1.00
14475;DHT22;7323;50.848;4.334;2023-02-26T05:49:43;1.80;1.00
14475;DHT22;7323;50.848;4.334;2023-02-26T05:52:09;1.70;1.00
14475;DHT22;7323;50.848;4.334;2023-02-26T05:57:40;1.70;1.00
14475;DHT22;7323;50.848;4.334;2023-02-26T06:00:07;1.60;1.00
14475;DHT22;7323;50.848;4.334;2023-02-26T06:02:38;1.60;1.00
14475;DHT22;7323;50.848;4.334;2023-02-26T06:05:05;1.60;1.00
14475;DHT22;7323;50.848;4.334;2023-02-26T06:07:46;1.60;1.00
14475;DHT22;7323;50.848;4.334;2023-02-26T06:10:21;1.60;1.00
14475;DHT22;7323;50.848;4.334;2023-02-26T06:12:46;1.60;1.00
14475;DHT22;7323;50.848;4.334;2023-02-26T06:15:13;1.50;1.00
14475;DHT22;7323;50.848;4.334;2023-02-26T06:17:54;1.50;1.00
14475;DHT22;7323;50.848;4.334;2023-02-26T06:20:27;1.60;1.00
14475;DHT22;7323;50.848;4.334;2023-02-26T06:22:54;1.50;1.00
14475;DHT22;7323;50.848;4.334;2023-02-26T06:25:39;1.50;1.00
14475;DHT22;7323;50.848;4.334;2023-02-26T06:28:14;1.40;1.00
14475;DHT22;7323;50.848;4.334;2023-02-26T06:30:41;1.40;1.00
14475;DHT22;7323;50.848;4.334;2023-02-26T06:33:06;1.40;1.00
14475;DHT22;7323;50.848;4.334;2023-02-26T06:35:33;1.40;1.00
14475;DHT22;7323;50.848;4.334;2023-02-26T06:38:00;1.40;1.00
14475;DHT22;7323;50.848;4.334;2023-02-26T06:40:31;1.40;1.00
14475;DHT22;7323;50.848;4.334;2023-02-26T06:43:07;1.30;1.00
14475;DHT22;7323;50.848;4.334;2023-02-26T06:45:57;1.30;1.00
14475;DHT22;7323;50.848;4.334;2023-02-26T06:48:40;1.30;1.00
14475;DHT22;7323;50.848;4.334;2023-02-26T06:51:07;1.30;1.00
14475;DHT22;7323;50.848;4.334;2023-02-26T06:53:38;1.30;1.00
14475;DHT22;7323;50.848;4.334;2023-02-26T06:56:04;1.30;1.00
14475;DHT22;7323;50.848;4.334;2023-02-26T06:59:03;1.30;1.00
14475;DHT22;7323;50.848;4.334;2023-02-26T07:01:29;1.40;1.00
14475;DHT22;7323;50.848;4.334;2023-02-26T07:07:40;1.30;1.00
14475;DHT22;7323;50.848;4.334;2023-02-26T07:10:11;1.40;1.00
14475;DHT22;7323;50.848;4.334;2023-02-26T07:12:43;1.40;1.00
14475;DHT22;7323;50.848;4.334;2023-02-26T07:15:11;1.40;1.00
14475;DHT22;7323;50.848;4.334;2023-02-26T07:17:37;1.40;1.00
14475;DHT22;7323;50.848;4.334;2023-02-26T07:20:07;1.40;1.00
14475;DHT22;7323;50.848;4.334;2023-02-26T07:22:50;1.50;1.00
14475;DHT22;7323;50.848;4.334;2023-02-26T07:25:19;1.50;1.00
14475;DHT22;7323;50.848;4.334;2023-02-26T07:27:57;1.50;1.00
14475;DHT22;7323;50.848;4.334;2023-02-26T07:30:58;1.60;1.00
14475;DHT22;7323;50.848;4.334;2023-02-26T07:33:47;1.60;1.00
14475;DHT22;7323;50.848;4.334;2023-02-26T07:36:16;1.70;1.00
14475;DHT22;7323;50.848;4.334;2023-02-26T07:38:45;1.90;1.00
14475;DHT22;7323;50.848;4.334;2023-02-26T07:41:32;1.80;1.00
14475;DHT22;7323;50.848;4.334;2023-02-26T07:44:56;1.80;1.00
14475;DHT22;7323;50.848;4.334;2023-02-26T07:50:49;1.80;99.90
14475;DHT22;7323;50.848;4.334;2023-02-26T07:53:18;1.90;99.90
14475;DHT22;7323;50.848;4.334;2023-02-26T07:56:06;1.90;99.90
14475;DHT22;7323;50.848;4.334;2023-02-26T07:58:38;1.90;99.90
14475;DHT22;7323;50.848;4.334;2023-02-26T08:01:08;2.00;99.90
14475;DHT22;7323;50.848;4.334;2023-02-26T08:03:34;2.00;99.90
14475;DHT22;7323;50.848;4.334;2023-02-26T08:06:03;2.00;99.90
14475;DHT22;7323;50.848;4.334;2023-02-26T08:08:29;2.10;99.90
14475;DHT22;7323;50.848;4.334;2023-02-26T08:10:55;2.20;99.90
14475;DHT22;7323;50.848;4.334;2023-02-26T08:13:23;2.20;53.70
14475;DHT22;7323;50.848;4.334;2023-02-26T08:15:48;2.20;53.90
14475;DHT22;7323;50.848;4.334;2023-02-26T08:18:20;2.40;86.80
14475;DHT22;7323;50.848;4.334;2023-02-26T08:20:46;2.30;1.00
14475;DHT22;7323;50.848;4.334;2023-02-26T08:23:18;2.30;9.30
14475;DHT22;7323;50.848;4.334;2023-02-26T08:25:43;2.30;1.00
14475;DHT22;7323;50.848;4.334;2023-02-26T08:28:11;2.30;1.00
14475;DHT22;7323;50.848;4.334;2023-02-26T08:30:37;2.30;9.40
14475;DHT22;7323;50.848;4.334;2023-02-26T08:33:09;2.40;20.30
14475;DHT22;7323;50.848;4.334;2023-02-26T08:35:41;2.40;1.00
14475;DHT22;7323;50.848;4.334;2023-02-26T08:38:28;2.40;5.90
14475;DHT22;7323;50.848;4.334;2023-02-26T08:40:58;2.30;1.00
14475;DHT22;7323;50.848;4.334;2023-02-26T08:43:34;2.40;34.80
14475;DHT22;7323;50.848;4.334;2023-02-26T08:46:02;2.40;1.00
14475;DHT22;7323;50.848;4.334;2023-02-26T08:48:27;2.30;1.00
14475;DHT22;7323;50.848;4.334;2023-02-26T08:50:53;2.40;1.00
14475;DHT22;7323;50.848;4.334;2023-02-26T08:53:19;2.40;1.00
14475;DHT22;7323;50.848;4.334;2023-02-26T08:55:48;2.40;1.00
14475;DHT22;7323;50.848;4.334;2023-02-26T08:58:14;2.40;1.00
14475;DHT22;7323;50.848;4.334;2023-02-26T09:00:40;2.50;1.00
14475;DHT22;7323;50.848;4.334;2023-02-26T09:03:06;2.60;1.00
14475;DHT22;7323;50.848;4.334;2023-02-26T09:05:31;2.80;1.00
14475;DHT22;7323;50.848;4.334;2023-02-26T09:07:57;2.80;1.00
14475;DHT22;7323;50.848;4.334;2023-02-26T09:10:23;2.90;1.00
14475;DHT22;7323;50.848;4.334;2023-02-26T09:12:51;3.00;99.90
14475;DHT22;7323;50.848;4.334;2023-02-26T09:15:20;3.00;99.90
14475;DHT22;7323;50.848;4.334;2023-02-26T09:17:48;3.10;99.90
14475;DHT22;7323;50.848;4.334;2023-02-26T09:20:16;3.10;1.00
14475;DHT22;7323;50.848;4.334;2023-02-26T09:22:43;3.20;1.00
14475;DHT22;7323;50.848;4.334;2023-02-26T09:25:12;3.20;1.00
14475;DHT22;7323;50.848;4.334;2023-02-26T09:27:39;3.20;1.00
14475;DHT22;7323;50.848;4.334;2023-02-26T09:30:06;3.20;1.00
14475;DHT22;7323;50.848;4.334;2023-02-26T09:32:32;3.20;1.00
14475;DHT22;7323;50.848;4.334;2023-02-26T09:35:01;3.40;99.90
14475;DHT22;7323;50.848;4.334;2023-02-26T09:37:28;3.50;1.00
14475;DHT22;7323;50.848;4.334;2023-02-26T09:39:53;3.40;1.00
14475;DHT22;7323;50.848;4.334;2023-02-26T09:42:37;3.40;99.90
14475;DHT22;7323;50.848;4.334;2023-02-26T09:45:28;3.40;1.00
14475;DHT22;7323;50.848;4.334;2023-02-26T09:47:57;3.40;99.90
14475;DHT22;7323;50.848;4.334;2023-02-26T09:50:49;3.50;1.00
14475;DHT22;7323;50.848;4.334;2023-02-26T09:53:32;3.60;1.00
14475;DHT22;7323;50.848;4.334;2023-02-26T09:56:07;3.60;1.00
14475;DHT22;7323;50.848;4.334;2023-02-26T09:58:37;3.60;1.00
14475;DHT22;7323;50.848;4.334;2023-02-26T10:04:01;3.60;1.00
14475;DHT22;7323;50.848;4.334;2023-02-26T10:06:37;3.60;1.00
14475;DHT22;7323;50.848;4.334;2023-02-26T10:09:26;3.70;1.00
14475;DHT22;7323;50.848;4.334;2023-02-26T10:12:22;3.80;1.00
14475;DHT22;7323;50.848;4.334;2023-02-26T10:15:08;3.90;77.40
14475;DHT22;7323;50.848;4.334;2023-02-26T10:23:54;3.80;1.00
14475;DHT22;7323;50.848;4.334;2023-02-26T10:26:44;3.80;99.90
14475;DHT22;7323;50.848;4.334;2023-02-26T10:34:46;3.90;1.00
14475;DHT22;7323;50.848;4.334;2023-02-26T10:37:18;3.90;99.90
14475;DHT22;7323;50.848;4.334;2023-02-26T10:39:52;3.90;99.90
14475;DHT22;7323;50.848;4.334;2023-02-26T10:42:45;4.00;99.90
14475;DHT22;7323;50.848;4.334;2023-02-26T10:51:22;4.10;1.00
14475;DHT22;7323;50.848;4.334;2023-02-26T10:54:26;4.40;28.40
14475;DHT22;7323;50.848;4.334;2023-02-26T10:56:45;4.40;1.00
14475;DHT22;7323;50.848;4.334;2023-02-26T10:59:13;4.30;1.00
14475;DHT22;7323;50.848;4.334;2023-02-26T11:01:39;4.30;1.00
14475;DHT22;7323;50.848;4.334;2023-02-26T11:04:12;4.50;99.90
14475;DHT22;7323;50.848;4.334;2023-02-26T11:14:17;4.40;21.80
14475;DHT22;7323;50.848;4.334;2023-02-26T11:16:59;4.50;99.90
14475;DHT22;7323;50.848;4.334;2023-02-26T11:19:38;4.50;1.00
14475;DHT22;7323;50.848;4.334;2023-02-26T11:22:06;4.60;1.00
14475;DHT22;7323;50.848;4.334;2023-02-26T11:24:37;4.50;39.30
14475;DHT22;7323;50.848;4.334;2023-02-26T11:27:10;4.50;1.00
14475;DHT22;7323;50.848;4.334;2023-02-26T11:29:43;4.70;99.90
14475;DHT22;7323;50.848;4.334;2023-02-26T11:32:31;4.50;99.90
14475;DHT22;7323;50.848;4.334;2023-02-26T11:34:56;4.60;99.90
14475;DHT22;7323;50.848;4.334;2023-02-26T11:37:30;4.70;99.90
14475;DHT22;7323;50.848;4.334;2023-02-26T11:39:58;4.70;99.90
14475;DHT22;7323;50.848;4.334;2023-02-26T11:42:27;4.70;99.90
14475;DHT22;7323;50.848;4.334;2023-02-26T11:44:53;4.30;1.00
14475;DHT22;7323;50.848;4.334;2023-02-26T11:47:23;4.30;1.00
14475;DHT22;7323;50.848;4.334;2023-02-26T11:49:53;4.40;99.90
14475;DHT22;7323;50.848;4.334;2023-02-26T11:52:33;4.50;99.90
14475;DHT22;7323;50.848;4.334;2023-02-26T11:55:05;4.40;1.00
14475;DHT22;7323;50.848;4.334;2023-02-26T11:57:42;4.40;99.90
14475;DHT22;7323;50.848;4.334;2023-02-26T12:00:39;4.30;99.90
14475;DHT22;7323;50.848;4.334;2023-02-26T12:03:13;4.20;99.90
14475;DHT22;7323;50.848;4.334;2023-02-26T12:05:40;4.30;99.90
14475;DHT22;7323;50.848;4.334;2023-02-26T12:08:17;4.50;99.90
14475;DHT22;7323;50.848;4.334;2023-02-26T12:16:42;4.30;1.00
14475;DHT22;7323;50.848;4.334;2023-02-26T12:19:15;4.50;99.90
14475;DHT22;7323;50.848;4.334;2023-02-26T12:24:36;4.70;1.00
14475;DHT22;7323;50.848;4.334;2023-02-26T12:38:57;4.90;99.90
14475;DHT22;7323;50.848;4.334;2023-02-26T12:42:06;4.90;99.90
14475;DHT22;7323;50.848;4.334;2023-02-26T12:56:11;5.10;1.00
14475;DHT22;7323;50.848;4.334;2023-02-26T13:01:51;4.90;99.90
14475;DHT22;7323;50.848;4.334;2023-02-26T13:10:38;5.00;99.90
14475;DHT22;7323;50.848;4.334;2023-02-26T13:13:41;5.00;99.90
14475;DHT22;7323;50.848;4.334;2023-02-26T13:22:09;5.30;99.90
14475;DHT22;7323;50.848;4.334;2023-02-26T13:24:47;5.20;99.90
14475;DHT22;7323;50.848;4.334;2023-02-26T13:27:14;5.40;99.90
14475;DHT22;7323;50.848;4.334;2023-02-26T13:29:46;5.30;99.90
14475;DHT22;7323;50.848;4.334;2023-02-26T13:32:30;5.30;99.90
14475;DHT22;7323;50.848;4.334;2023-02-26T13:35:04;5.40;99.90
14475;DHT22;7323;50.848;4.334;2023-02-26T13:37:38;5.40;99.90
14475;DHT22;7323;50.848;4.334;2023-02-26T13:40:28;5.20;99.90
14475;DHT22;7323;50.848;4.334;2023-02-26T13:49:05;5.30;99.90
14475;DHT22;7323;50.848;4.334;2023-02-26T13:51:39;5.20;99.90
14475;DHT22;7323;50.848;4.334;2023-02-26T14:07:13;5.60;48.60
14475;DHT22;7323;50.848;4.334;2023-02-26T14:09:46;5.30;1.00
14475;DHT22;7323;50.848;4.334;2023-02-26T14:12:35;5.50;1.00
14475;DHT22;7323;50.848;4.334;2023-02-26T14:18:01;5.40;1.00
14475;DHT22;7323;50.848;4.334;2023-02-26T14:20:32;5.40;1.00
14475;DHT22;7323;50.848;4.334;2023-02-26T14:25:50;5.40;1.00
14475;DHT22;7323;50.848;4.334;2023-02-26T14:30:52;5.60;1.00
14475;DHT22;7323;50.848;4.334;2023-02-26T14:33:25;5.60;1.00
14475;DHT22;7323;50.848;4.334;2023-02-26T14:35:52;5.60;1.00
14475;DHT22;7323;50.848;4.334;2023-02-26T14:38:27;5.50;1.00
14475;DHT22;7323;50.848;4.334;2023-02-26T14:43:59;5.60;4.00
14475;DHT22;7323;50.848;4.334;2023-02-26T14:46:31;5.60;1.00
14475;DHT22;7323;50.848;4.334;2023-02-26T14:48:58;5.70;20.80
14475;DHT22;7323;50.848;4.334;2023-02-26T14:54:26;5.50;1.00
14475;DHT22;7323;50.848;4.334;2023-02-26T14:57:21;5.60;1.00
14475;DHT22;7323;50.848;4.334;2023-02-26T15:05:19;5.60;28.40
14475;DHT22;7323;50.848;4.334;2023-02-26T15:08:03;5.70;1.00
14475;DHT22;7323;50.848;4.334;2023-02-26T15:10:45;5.90;1.00
14475;DHT22;7323;50.848;4.334;2023-02-26T15:13:22;6.50;1.00
14475;DHT22;7323;50.848;4.334;2023-02-26T15:18:53;7.10;1.00
14475;DHT22;7323;50.848;4.334;2023-02-26T15:24:25;7.80;1.00
14475;DHT22;7323;50.848;4.334;2023-02-26T15:26:54;7.60;1.00
14475;DHT22;7323;50.848;4.334;2023-02-26T15:29:28;7.40;1.00
14475;DHT22;7323;50.848;4.334;2023-02-26T15:32:04;7.40;1.00
14475;DHT22;7323;50.848;4.334;2023-02-26T15:34:30;8.00;1.00
14475;DHT22;7323;50.848;4.334;2023-02-26T15:36:58;8.20;1.00
14475;DHT22;7323;50.848;4.334;2023-02-26T15:39:25;8.00;1.00
14475;DHT22;7323;50.848;4.334;2023-02-26T15:41:52;8.10;1.00
14475;DHT22;7323;50.848;4.334;2023-02-26T15:44:22;8.00;1.00
14475;DHT22;7323;50.848;4.334;2023-02-26T15:46:54;7.90;1.00
14475;DHT22;7323;50.848;4.334;2023-02-26T15:51:56;7.70;1.00
14475;DHT22;7323;50.848;4.334;2023-02-26T15:54:26;7.80;1.00
14475;DHT22;7323;50.848;4.334;2023-02-26T15:56:55;8.10;1.00
14475;DHT22;7323;50.848;4.334;2023-02-26T15:59:26;8.10;1.00
14475;DHT22;7323;50.848;4.334;2023-02-26T16:01:53;8.30;1.00
14475;DHT22;7323;50.848;4.334;2023-02-26T16:04:21;8.20;1.00
14475;DHT22;7323;50.848;4.334;2023-02-26T16:06:55;8.50;1.00
14475;DHT22;7323;50.848;4.334;2023-02-26T16:09:34;8.40;1.00
14475;DHT22;7323;50.848;4.334;2023-02-26T16:12:06;8.30;1.00
14475;DHT22;7323;50.848;4.334;2023-02-26T16:14:39;8.40;1.00
14475;DHT22;7323;50.848;4.334;2023-02-26T16:17:10;8.60;1.00
14475;DHT22;7323;50.848;4.334;2023-02-26T16:19:45;8.40;1.00
14475;DHT22;7323;50.848;4.334;2023-02-26T16:22:33;8.40;1.00
14475;DHT22;7323;50.848;4.334;2023-02-26T16:25:05;8.50;1.00
14475;DHT22;7323;50.848;4.334;2023-02-26T16:27:32;8.70;1.00
14475;DHT22;7323;50.848;4.334;2023-02-26T16:30:00;8.60;1.00
14475;DHT22;7323;50.848;4.334;2023-02-26T16:32:28;8.40;1.00
14475;DHT22;7323;50.848;4.334;2023-02-26T16:34:58;8.30;1.00
14475;DHT22;7323;50.848;4.334;2023-02-26T16:37:32;8.20;1.00
14475;DHT22;7323;50.848;4.334;2023-02-26T16:40:18;8.00;1.00
14475;DHT22;7323;50.848;4.334;2023-02-26T16:45:59;7.90;1.00
14475;DHT22;7323;50.848;4.334;2023-02-26T16:48:48;7.90;1.00
14475;DHT22;7323;50.848;4.334;2023-02-26T16:51:19;7.60;1.00
14475;DHT22;7323;50.848;4.334;2023-02-26T16:53:58;7.30;1.00
14475;DHT22;7323;50.848;4.334;2023-02-26T16:56:34;7.40;1.00
14475;DHT22;7323;50.848;4.334;2023-02-26T16:59:20;7.20;13.00
14475;DHT22;7323;50.848;4.334;2023-02-26T17:02:11;7.00;63.70
14475;DHT22;7323;50.848;4.334;2023-02-26T17:04:38;6.90;97.40
14475;DHT22;7323;50.848;4.334;2023-02-26T17:07:14;6.70;99.90
14475;DHT22;7323;50.848;4.334;2023-02-26T17:09:46;6.70;99.90
14475;DHT22;7323;50.848;4.334;2023-02-26T17:12:28;6.60;99.90
14475;DHT22;7323;50.848;4.334;2023-02-26T17:14:56;6.40;99.90
14475;DHT22;7323;50.848;4.334;2023-02-26T17:17:25;6.20;99.90
14475;DHT22;7323;50.848;4.334;2023-02-26T17:19:52;5.90;99.90
14475;DHT22;7323;50.848;4.334;2023-02-26T17:22:25;5.90;1.00
14475;DHT22;7323;50.848;4.334;2023-02-26T17:24:51;5.80;1.00
14475;DHT22;7323;50.848;4.334;2023-02-26T17:27:33;5.70;1.00
14475;DHT22;7323;50.848;4.334;2023-02-26T17:30:01;5.70;1.00
14475;DHT22;7323;50.848;4.334;2023-02-26T17:32:28;5.70;1.00
14475;DHT22;7323;50.848;4.334;2023-02-26T17:34:58;5.70;1.00
14475;DHT22;7323;50.848;4.334;2023-02-26T17:37:29;5.50;65.70
14475;DHT22;7323;50.848;4.334;2023-02-26T17:39:55;5.60;84.30
14475;DHT22;7323;50.848;4.334;2023-02-26T17:42:22;5.60;99.90
14475;DHT22;7323;50.848;4.334;2023-02-26T17:44:48;5.50;99.90
14475;DHT22;7323;50.848;4.334;2023-02-26T17:47:19;5.40;99.90
14475;DHT22;7323;50.848;4.334;2023-02-26T17:52:45;5.40;1.00
14475;DHT22;7323;50.848;4.334;2023-02-26T17:55:11;5.30;99.90
14475;DHT22;7323;50.848;4.334;2023-02-26T17:57:37;5.30;99.90
14475;DHT22;7323;50.848;4.334;2023-02-26T18:00:03;5.40;1.00
14475;DHT22;7323;50.848;4.334;2023-02-26T18:02:29;5.40;1.00
14475;DHT22;7323;50.848;4.334;2023-02-26T18:04:55;5.50;1.00
14475;DHT22;7323;50.848;4.334;2023-02-26T18:07:22;5.30;1.00
14475;DHT22;7323;50.848;4.334;2023-02-26T18:09:49;5.40;1.00
14475;DHT22;7323;50.848;4.334;2023-02-26T18:12:19;5.30;1.00
14475;DHT22;7323;50.848;4.334;2023-02-26T18:14:45;5.30;11.40
14475;DHT22;7323;50.848;4.334;2023-02-26T18:17:38;5.30;1.00
14475;DHT22;7323;50.848;4.334;2023-02-26T18:20:10;5.30;1.00
14475;DHT22;7323;50.848;4.334;2023-02-26T18:22:40;5.30;99.90
14475;DHT22;7323;50.848;4.334;2023-02-26T18:25:08;5.20;99.90
14475;DHT22;7323;50.848;4.334;2023-02-26T18:27:33;5.10;1.00
14475;DHT22;7323;50.848;4.334;2023-02-26T18:29:59;5.10;99.90
14475;DHT22;7323;50.848;4.334;2023-02-26T18:32:26;5.00;99.90
14475;DHT22;7323;50.848;4.334;2023-02-26T18:34:52;5.00;1.00
14475;DHT22;7323;50.848;4.334;2023-02-26T18:37:23;5.00;1.00
14475;DHT22;7323;50.848;4.334;2023-02-26T18:39:50;5.00;1.00
14475;DHT22;7323;50.848;4.334;2023-02-26T18:42:25;5.00;1.00
14475;DHT22;7323;50.848;4.334;2023-02-26T18:44:51;5.00;1.00
14475;DHT22;7323;50.848;4.334;2023-02-26T18:47:20;5.00;1.00
14475;DHT22;7323;50.848;4.334;2023-02-26T18:49:48;5.00;1.00
14475;DHT22;7323;50.848;4.334;2023-02-26T18:52:16;4.90;1.00
14475;DHT22;7323;50.848;4.334;2023-02-26T18:54:42;4.90;1.00
14475;DHT22;7323;50.848;4.334;2023-02-26T18:57:09;4.80;1.00
14475;DHT22;7323;50.848;4.334;2023-02-26T18:59:35;4.80;1.00
14475;DHT22;7323;50.848;4.334;2023-02-26T19:02:03;4.70;1.00
14475;DHT22;7323;50.848;4.334;2023-02-26T19:04:30;4.70;22.70
14475;DHT22;7323;50.848;4.334;2023-02-26T19:06:56;4.70;1.00
14475;DHT22;7323;50.848;4.334;2023-02-26T19:09:22;4.60;99.90
14475;DHT22;7323;50.848;4.334;2023-02-26T19:11:51;4.60;99.90
14475;DHT22;7323;50.848;4.334;2023-02-26T19:14:17;4.60;99.90
14475;DHT22;7323;50.848;4.334;2023-02-26T19:16:46;4.60;99.90
14475;DHT22;7323;50.848;4.334;2023-02-26T19:19:19;4.60;99.90
14475;DHT22;7323;50.848;4.334;2023-02-26T19:21:45;4.50;99.90
14475;DHT22;7323;50.848;4.334;2023-02-26T19:24:11;4.60;99.90
14475;DHT22;7323;50.848;4.334;2023-02-26T19:26:37;4.40;1.00
14475;DHT22;7323;50.848;4.334;2023-02-26T19:29:05;4.50;1.00
14475;DHT22;7323;50.848;4.334;2023-02-26T19:31:31;4.40;1.00
14475;DHT22;7323;50.848;4.334;2023-02-26T19:33:57;4.40;1.00
14475;DHT22;7323;50.848;4.334;2023-02-26T19:36:23;4.50;99.90
14475;DHT22;7323;50.848;4.334;2023-02-26T19:38:50;4.30;32.30
14475;DHT22;7323;50.848;4.334;2023-02-26T19:41:16;4.40;99.90
14475;DHT22;7323;50.848;4.334;2023-02-26T19:43:48;4.30;99.90
14475;DHT22;7323;50.848;4.334;2023-02-26T19:46:15;4.40;99.90
14475;DHT22;7323;50.848;4.334;2023-02-26T19:48:41;4.30;99.90
14475;DHT22;7323;50.848;4.334;2023-02-26T19:51:08;4.30;1.00
14475;DHT22;7323;50.848;4.334;2023-02-26T19:53:34;4.30;1.00
14475;DHT22;7323;50.848;4.334;2023-02-26T19:56:04;4.30;1.00
14475;DHT22;7323;50.848;4.334;2023-02-26T19:58:30;4.20;1.00
14475;DHT22;7323;50.848;4.334;2023-02-26T20:00:57;4.50;99.90
14475;DHT22;7323;50.848;4.334;2023-02-26T20:03:27;4.20;99.90
14475;DHT22;7323;50.848;4.334;2023-02-26T20:05:55;4.20;99.90
14475;DHT22;7323;50.848;4.334;2023-02-26T20:08:23;4.10;61.10
14475;DHT22;7323;50.848;4.334;2023-02-26T20:10:52;4.00;1.00
14475;DHT22;7323;50.848;4.334;2023-02-26T20:13:18;3.90;1.00
14475;DHT22;7323;50.848;4.334;2023-02-26T20:15:43;3.90;99.90
14475;DHT22;7323;50.848;4.334;2023-02-26T20:18:09;3.90;1.00
14475;DHT22;7323;50.848;4.334;2023-02-26T20:20:35;3.80;1.00